createdAt,value
2023-02-14T00:01:55.200Z,100.00
2023-02-14T00:04:22.966Z,100.00
2023-02-14T00:06:50.845Z,100.00
2023-02-14T00:09:20.350Z,100.00
2023-02-14T00:11:49.618Z,100.00
2023-02-14T00:14:35.233Z,100.00
2023-02-14T00:17:03.209Z,100.00
2023-02-14T00:19:31.860Z,100.00
2023-02-14T00:22:02.316Z,100.00
2023-02-14T00:24:30.392Z,100.00
2023-02-14T00:26:59.620Z,100.00
2023-02-14T00:29:29.846Z,100.00
2023-02-14T00:32:01.476Z,100.00
2023-02-14T00:34:29.777Z,100.00
2023-02-14T00:37:00.547Z,100.00
2023-02-14T00:39:28.224Z,100.00
2023-02-14T00:41:56.009Z,100.00
2023-02-14T00:44:25.384Z,100.00
2023-02-14T00:46:53.132Z,100.00
2023-02-14T00:49:20.851Z,100.00
2023-02-14T00:51:48.647Z,100.00
2023-02-14T00:54:16.387Z,100.00
2023-02-14T00:56:44.114Z,100.00
2023-02-14T00:59:11.942Z,100.00
2023-02-14T01:01:41.311Z,100.00
2023-02-14T01:04:10.595Z,100.00
2023-02-14T01:06:39.565Z,100.00
2023-02-14T01:09:07.448Z,100.00
2023-02-14T01:11:35.484Z,100.00
2023-02-14T01:14:03.342Z,100.00
2023-02-14T01:16:31.750Z,100.00
2023-02-14T01:19:01.830Z,100.00
2023-02-14T01:21:31.670Z,100.00
2023-02-14T01:24:02.126Z,100.00
2023-02-14T01:26:31.126Z,100.00
2023-02-14T01:29:02.541Z,100.00
2023-02-14T01:31:33.187Z,100.00
2023-02-14T01:34:03.129Z,100.00
2023-02-14T01:36:32.671Z,100.00
2023-02-14T01:39:03.671Z,100.00
2023-02-14T01:41:33.566Z,100.00
2023-02-14T01:44:03.144Z,100.00
2023-02-14T01:46:32.598Z,100.00
2023-02-14T01:49:04.928Z,100.00
2023-02-14T01:51:35.726Z,100.00
2023-02-14T01:54:05.035Z,100.00
2023-02-14T01:56:36.487Z,100.00
2023-02-14T01:59:09.256Z,100.00
2023-02-14T02:01:37.048Z,100.00
2023-02-14T02:04:11.058Z,100.00
2023-02-14T02:06:42.843Z,100.00
2023-02-14T02:09:16.156Z,100.00
2023-02-14T02:11:44.576Z,100.00
2023-02-14T02:14:15.947Z,100.00
2023-02-14T02:17:15.639Z,100.00
2023-02-14T02:20:12.193Z,100.00
2023-02-14T02:23:11.965Z,100.00
2023-02-14T02:26:02.989Z,100.00
2023-02-14T02:28:55.888Z,100.00
2023-02-14T02:32:01.139Z,100.00
2023-02-14T02:35:21.843Z,100.00
2023-02-14T02:38:05.745Z,100.00
2023-02-14T02:40:48.702Z,100.00
2023-02-14T02:43:33.876Z,100.00
2023-02-14T02:46:22.840Z,100.00
2023-02-14T02:48:58.285Z,100.00
2023-02-14T02:51:52.410Z,100.00
2023-02-14T02:54:30.070Z,100.00
2023-02-14T02:56:59.681Z,100.00
2023-02-14T02:59:31.497Z,100.00
2023-02-14T03:02:06.318Z,100.00
2023-02-14T03:04:53.191Z,100.00
2023-02-14T03:07:36.734Z,100.00
2023-02-14T03:10:15.889Z,100.00
2023-02-14T03:13:29.593Z,100.00
2023-02-14T03:16:40.273Z,100.00
2023-02-14T03:19:32.088Z,100.00
2023-02-14T03:22:04.912Z,100.00
2023-02-14T03:24:47.148Z,100.00
2023-02-14T03:27:40.004Z,100.00
2023-02-14T03:30:15.985Z,100.00
2023-02-14T03:32:49.448Z,100.00
2023-02-14T03:35:23.790Z,100.00
2023-02-14T03:37:58.096Z,100.00
2023-02-14T03:40:32.438Z,100.00
2023-02-14T03:43:05.341Z,100.00
2023-02-14T03:45:36.886Z,100.00
2023-02-14T03:48:09.247Z,100.00
2023-02-14T03:50:39.931Z,100.00
2023-02-14T03:53:11.139Z,100.00
2023-02-14T03:55:45.723Z,100.00
2023-02-14T03:58:20.381Z,100.00
2023-02-14T04:00:51.643Z,100.00
2023-02-14T04:03:21.304Z,100.00
2023-02-14T04:05:52.390Z,100.00
2023-02-14T04:08:24.778Z,100.00
2023-02-14T04:10:55.284Z,100.00
2023-02-14T04:13:23.406Z,100.00
2023-02-14T04:15:51.123Z,100.00
2023-02-14T04:18:36.280Z,100.00
2023-02-14T04:21:04.023Z,100.00
2023-02-14T04:23:31.955Z,100.00
2023-02-14T04:26:01.052Z,100.00
2023-02-14T04:28:28.942Z,100.00
2023-02-14T04:30:56.817Z,100.00
2023-02-14T04:33:24.573Z,100.00
2023-02-14T04:35:52.353Z,100.00
2023-02-14T04:38:20.092Z,100.00
2023-02-14T04:40:49.976Z,100.00
2023-02-14T04:43:19.418Z,100.00
2023-02-14T04:45:48.465Z,100.00
2023-02-14T04:48:16.394Z,100.00
2023-02-14T04:50:44.214Z,100.00
2023-02-14T04:53:11.988Z,100.00
2023-02-14T04:55:39.780Z,100.00
2023-02-14T04:58:07.644Z,100.00
2023-02-14T05:00:36.866Z,100.00
2023-02-14T05:03:04.811Z,100.00
2023-02-14T05:05:32.532Z,100.00
2023-02-14T05:08:00.221Z,100.00
2023-02-14T05:10:29.150Z,100.00
2023-02-14T05:12:56.945Z,100.00
2023-02-14T05:15:24.655Z,100.00
2023-02-14T05:17:53.799Z,100.00
2023-02-14T05:20:21.817Z,100.00
2023-02-14T05:22:49.553Z,100.00
2023-02-14T05:25:19.631Z,100.00
2023-02-14T05:27:47.345Z,100.00
2023-02-14T05:30:30.776Z,100.00
2023-02-14T05:33:00.119Z,100.00
2023-02-14T05:35:28.268Z,100.00
2023-02-14T05:38:18.328Z,100.00
2023-02-14T05:40:46.793Z,100.00
2023-02-14T05:43:20.730Z,100.00
2023-02-14T05:45:48.970Z,100.00
2023-02-14T05:48:19.083Z,100.00
2023-02-14T05:50:46.917Z,100.00
2023-02-14T05:53:16.820Z,100.00
2023-02-14T05:55:44.567Z,100.00
2023-02-14T05:58:12.639Z,100.00
2023-02-14T06:00:41.389Z,100.00
2023-02-14T06:03:09.477Z,100.00
2023-02-14T06:05:38.611Z,100.00
2023-02-14T06:08:06.391Z,100.00
2023-02-14T06:10:34.504Z,100.00
2023-02-14T06:13:02.216Z,100.00
2023-02-14T06:15:29.927Z,100.00
2023-02-14T06:17:58.690Z,100.00
2023-02-14T06:20:27.503Z,100.00
2023-02-14T06:22:57.033Z,100.00
2023-02-14T06:25:25.605Z,100.00
2023-02-14T06:27:57.115Z,100.00
2023-02-14T06:30:25.918Z,100.00
2023-02-14T06:32:53.807Z,100.00
2023-02-14T06:35:21.498Z,100.00
2023-02-14T06:37:49.430Z,100.00
2023-02-14T06:40:19.655Z,100.00
2023-02-14T06:42:47.575Z,100.00
2023-02-14T06:45:15.264Z,100.00
2023-02-14T06:47:43.112Z,100.00
2023-02-14T06:50:12.495Z,100.00
2023-02-14T06:52:42.108Z,100.00
2023-02-14T06:55:11.723Z,100.00
2023-02-14T06:57:41.201Z,100.00
2023-02-14T07:00:10.284Z,100.00
2023-02-14T07:02:38.141Z,100.00
2023-02-14T07:05:06.384Z,100.00
2023-02-14T07:07:34.075Z,100.00
2023-02-14T07:10:01.875Z,100.00
2023-02-14T07:12:29.625Z,100.00
2023-02-14T07:14:58.715Z,100.00
2023-02-14T07:17:26.451Z,100.00
2023-02-14T07:19:54.244Z,100.00
2023-02-14T07:22:22.003Z,100.00
2023-02-14T07:24:49.792Z,100.00
2023-02-14T07:27:17.567Z,100.00
2023-02-14T07:29:45.301Z,100.00
2023-02-14T07:32:14.464Z,100.00
2023-02-14T07:34:42.277Z,100.00
2023-02-14T07:37:10.089Z,100.00
2023-02-14T07:39:37.847Z,100.00
2023-02-14T07:42:05.665Z,100.00
2023-02-14T07:44:33.500Z,100.00
2023-02-14T07:47:01.313Z,100.00
2023-02-14T07:49:30.390Z,100.00
2023-02-14T07:51:58.203Z,100.00
2023-02-14T07:54:26.303Z,100.00
2023-02-14T07:56:54.045Z,100.00
2023-02-14T07:59:22.709Z,100.00
2023-02-14T08:01:51.191Z,100.00
2023-02-14T08:04:18.941Z,100.00
2023-02-14T08:06:48.230Z,100.00
2023-02-14T08:09:24.524Z,100.00
2023-02-14T08:12:10.191Z,100.00
2023-02-14T08:14:38.255Z,100.00
2023-02-14T08:17:07.282Z,100.00
2023-02-14T08:19:35.206Z,100.00
2023-02-14T08:22:04.985Z,100.00
2023-02-14T08:24:33.268Z,100.00
2023-02-14T08:27:01.269Z,100.00
2023-02-14T08:29:29.077Z,100.00
2023-02-14T08:32:00.329Z,100.00
2023-02-14T08:34:28.200Z,100.00
2023-02-14T08:36:56.257Z,100.00
2023-02-14T08:39:25.608Z,100.00
2023-02-14T08:41:53.385Z,100.00
2023-02-14T08:44:21.757Z,100.00
2023-02-14T08:46:49.570Z,100.00
2023-02-14T08:49:17.356Z,100.00
2023-02-14T08:51:45.050Z,100.00
2023-02-14T08:54:12.747Z,100.00
2023-02-14T08:56:42.355Z,100.00
2023-02-14T08:59:10.119Z,100.00
2023-02-14T09:01:37.902Z,100.00
2023-02-14T09:04:05.762Z,100.00
2023-02-14T09:06:33.616Z,100.00
2023-02-14T09:09:02.665Z,100.00
2023-02-14T09:11:30.599Z,100.00
2023-02-14T09:13:59.694Z,100.00
2023-02-14T09:16:27.757Z,100.00
2023-02-14T09:18:56.587Z,100.00
2023-02-14T09:21:26.352Z,100.00
2023-02-14T09:23:54.869Z,100.00
2023-02-14T09:26:22.755Z,100.00
2023-02-14T09:28:50.805Z,100.00
2023-02-14T09:31:22.235Z,100.00
2023-02-14T09:34:08.836Z,100.00
2023-02-14T09:36:36.761Z,100.00
2023-02-14T09:39:05.088Z,100.00
2023-02-14T09:42:02.110Z,100.00
2023-02-14T09:44:36.056Z,100.00
2023-02-14T09:47:13.352Z,100.00
2023-02-14T09:49:42.063Z,100.00
2023-02-14T09:52:16.565Z,100.00
2023-02-14T09:54:49.139Z,100.00
2023-02-14T09:57:26.235Z,100.00
2023-02-14T10:00:01.671Z,100.00
2023-02-14T10:02:43.386Z,100.00
2023-02-14T10:05:15.857Z,100.00
2023-02-14T10:08:01.190Z,98.90
2023-02-14T10:10:35.135Z,98.88
2023-02-14T10:13:08.615Z,97.75
2023-02-14T10:15:41.594Z,98.32
2023-02-14T10:18:15.702Z,95.54
2023-02-14T10:20:45.773Z,95.25
2023-02-14T10:23:26.088Z,91.50
2023-02-14T10:26:00.643Z,92.12
2023-02-14T10:28:33.816Z,89.86
2023-02-14T10:31:19.153Z,90.45
2023-02-14T10:33:55.627Z,89.60
2023-02-14T10:36:37.745Z,88.84
2023-02-14T10:39:18.462Z,88.40
2023-02-14T10:41:53.813Z,86.05
2023-02-14T10:44:41.407Z,84.12
2023-02-14T10:47:22.175Z,85.60
2023-02-14T10:49:58.961Z,79.73
2023-02-14T10:52:32.238Z,84.93
2023-02-14T10:55:02.786Z,82.30
2023-02-14T10:57:35.132Z,77.23
2023-02-14T11:00:06.635Z,77.76
2023-02-14T11:02:37.833Z,77.63
2023-02-14T11:05:08.622Z,72.23
2023-02-14T11:07:36.276Z,72.63
2023-02-14T11:10:04.053Z,69.31
2023-02-14T11:12:37.412Z,71.76
2023-02-14T11:15:24.092Z,68.38
2023-02-14T11:18:11.248Z,68.36
2023-02-14T11:20:40.772Z,67.90
2023-02-14T11:23:21.921Z,66.75
2023-02-14T11:25:53.634Z,64.71
2023-02-14T11:28:21.815Z,64.94
2023-02-14T11:30:51.581Z,62.81
2023-02-14T11:33:35.109Z,62.23
2023-02-14T11:36:10.780Z,63.16
2023-02-14T11:38:40.089Z,65.06
2023-02-14T11:41:11.160Z,64.99
2023-02-14T11:43:40.559Z,64.42
2023-02-14T11:46:15.431Z,64.63
2023-02-14T11:48:58.043Z,63.86
2023-02-14T11:51:34.619Z,65.61
2023-02-14T11:54:05.307Z,63.90
2023-02-14T11:56:49.462Z,64.40
2023-02-14T11:59:28.389Z,65.10
2023-02-14T12:01:58.956Z,63.77
2023-02-14T12:04:45.652Z,64.37
2023-02-14T12:07:21.436Z,61.13
2023-02-14T12:10:05.482Z,61.29
2023-02-14T12:12:33.302Z,62.31
2023-02-14T12:15:24.076Z,62.23
2023-02-14T12:17:58.022Z,60.22
2023-02-14T12:20:39.190Z,59.09
2023-02-14T12:23:17.025Z,59.92
2023-02-14T12:25:49.795Z,60.13
2023-02-14T12:28:23.199Z,60.56
2023-02-14T12:30:54.638Z,58.78
2023-02-14T12:33:26.092Z,59.90
2023-02-14T12:36:02.574Z,59.21
2023-02-14T12:38:42.303Z,58.27
2023-02-14T12:41:24.661Z,58.67
2023-02-14T12:43:55.346Z,59.96
2023-02-14T12:46:49.203Z,60.04
2023-02-14T12:49:36.436Z,58.62
2023-02-14T12:52:20.689Z,57.91
2023-02-14T12:55:01.779Z,59.96
2023-02-14T12:57:44.331Z,58.41
2023-02-14T13:00:22.201Z,57.82
2023-02-14T13:03:28.034Z,58.11
2023-02-14T13:06:02.998Z,58.72
2023-02-14T13:09:01.307Z,59.03
2023-02-14T13:11:37.668Z,61.75
2023-02-14T13:14:18.531Z,59.94
2023-02-14T13:16:52.269Z,61.36
2023-02-14T13:19:34.374Z,61.67
2023-02-14T13:22:02.501Z,61.88
2023-02-14T13:24:36.355Z,61.10
2023-02-14T13:27:10.779Z,61.55
2023-02-14T13:29:46.247Z,61.35
2023-02-14T13:32:18.072Z,60.50
2023-02-14T13:34:52.732Z,60.10
2023-02-14T13:37:27.383Z,60.47
2023-02-14T13:40:01.814Z,60.64
2023-02-14T13:42:57.013Z,59.26
2023-02-14T13:45:55.178Z,59.09
2023-02-14T13:48:27.576Z,58.89
2023-02-14T13:50:58.284Z,57.96
2023-02-14T13:53:32.717Z,59.24
2023-02-14T13:56:01.001Z,59.49
2023-02-14T13:58:30.909Z,59.35
2023-02-14T14:00:59.382Z,59.79
2023-02-14T14:03:57.129Z,58.43
2023-02-14T14:06:25.090Z,58.99
2023-02-14T14:08:56.118Z,58.85
2023-02-14T14:11:56.981Z,58.37
2023-02-14T14:14:36.434Z,57.91
2023-02-14T14:17:20.711Z,57.82
2023-02-14T14:19:48.759Z,57.33
2023-02-14T14:22:17.630Z,58.05
2023-02-14T14:25:00.694Z,57.33
2023-02-14T14:27:32.928Z,59.16
2023-02-14T14:30:04.091Z,58.09
2023-02-14T14:32:34.241Z,58.06
2023-02-14T14:35:03.812Z,58.26
2023-02-14T14:37:33.587Z,58.77
2023-02-14T14:40:03.671Z,59.44
2023-02-14T14:42:36.777Z,58.91
2023-02-14T14:45:10.395Z,58.17
2023-02-14T14:47:43.365Z,59.99
2023-02-14T14:50:17.307Z,59.45
2023-02-14T14:52:48.338Z,59.46
2023-02-14T14:55:20.605Z,59.77
2023-02-14T14:57:51.556Z,59.85
2023-02-14T15:00:27.404Z,60.21
2023-02-14T15:03:08.448Z,60.58
2023-02-14T15:05:38.510Z,60.78
2023-02-14T15:08:31.847Z,60.00
2023-02-14T15:11:03.599Z,61.82
2023-02-14T15:13:53.236Z,61.05
2023-02-14T15:16:29.224Z,60.98
2023-02-14T15:19:03.974Z,62.52
2023-02-14T15:21:32.366Z,62.73
2023-02-14T15:24:01.908Z,63.42
2023-02-14T15:26:32.444Z,64.25
2023-02-14T15:29:06.730Z,62.60
2023-02-14T15:31:40.258Z,64.50
2023-02-14T15:34:09.817Z,68.14
2023-02-14T15:36:37.780Z,69.84
2023-02-14T15:39:09.412Z,68.85
2023-02-14T15:41:37.419Z,71.03
2023-02-14T15:44:05.626Z,70.81
2023-02-14T15:46:38.798Z,73.87
2023-02-14T15:49:10.648Z,74.59
2023-02-14T15:51:39.579Z,76.00
2023-02-14T15:54:22.047Z,70.53
2023-02-14T15:56:52.696Z,71.68
2023-02-14T15:59:23.557Z,74.88
2023-02-14T16:01:55.796Z,77.60
2023-02-14T16:04:25.617Z,81.59
2023-02-14T16:07:17.383Z,84.03
2023-02-14T16:09:45.179Z,80.01
2023-02-14T16:12:27.385Z,80.33
2023-02-14T16:15:03.188Z,76.45
2023-02-14T16:17:36.755Z,75.80
2023-02-14T16:20:27.698Z,76.00
2023-02-14T16:23:17.523Z,74.95
2023-02-14T16:25:45.789Z,77.72
2023-02-14T16:28:14.763Z,79.75
2023-02-14T16:30:43.800Z,76.99
2023-02-14T16:33:18.366Z,75.80
2023-02-14T16:35:47.018Z,78.93
2023-02-14T16:38:16.756Z,81.83
2023-02-14T16:40:47.834Z,81.66
2023-02-14T16:43:17.407Z,84.09
2023-02-14T16:45:45.751Z,85.41
2023-02-14T16:48:16.397Z,86.41
2023-02-14T16:50:45.149Z,87.32
2023-02-14T16:53:25.865Z,88.08
2023-02-14T16:55:55.114Z,89.10
2023-02-14T16:58:25.404Z,89.21
2023-02-14T17:00:53.154Z,89.79
2023-02-14T17:03:22.448Z,89.99
2023-02-14T17:05:50.412Z,90.41
2023-02-14T17:08:18.966Z,91.17
2023-02-14T17:10:48.940Z,91.41
2023-02-14T17:13:20.213Z,91.74
2023-02-14T17:15:48.374Z,92.21
2023-02-14T17:18:18.734Z,92.97
2023-02-14T17:20:48.358Z,91.81
2023-02-14T17:23:16.429Z,89.22
2023-02-14T17:25:44.249Z,87.01
2023-02-14T17:28:12.076Z,85.56
2023-02-14T17:30:40.285Z,86.43
2023-02-14T17:33:08.261Z,87.01
2023-02-14T17:35:36.523Z,87.29
2023-02-14T17:38:06.087Z,85.50
2023-02-14T17:40:34.034Z,87.22
2023-02-14T17:43:01.853Z,87.07
2023-02-14T17:45:29.740Z,87.50
2023-02-14T17:47:57.758Z,88.15
2023-02-14T17:50:25.490Z,89.47
2023-02-14T17:52:55.492Z,87.51
2023-02-14T17:55:25.053Z,88.92
2023-02-14T17:57:52.846Z,88.15
2023-02-14T18:00:22.315Z,88.34
2023-02-14T18:02:50.321Z,89.57
2023-02-14T18:05:18.121Z,89.92
2023-02-14T18:07:45.960Z,87.91
2023-02-14T18:10:13.751Z,88.21
2023-02-14T18:12:43.369Z,87.48
2023-02-14T18:15:11.208Z,86.28
2023-02-14T18:17:38.984Z,85.33
2023-02-14T18:20:08.162Z,85.43
2023-02-14T18:22:36.759Z,84.78
2023-02-14T18:25:04.711Z,86.24
2023-02-14T18:27:33.113Z,86.18
2023-02-14T18:30:02.600Z,85.74
2023-02-14T18:32:30.489Z,83.74
2023-02-14T18:34:58.195Z,84.15
2023-02-14T18:37:25.922Z,84.25
2023-02-14T18:39:53.754Z,83.49
2023-02-14T18:42:21.737Z,84.06
2023-02-14T18:44:49.550Z,84.01
2023-02-14T18:47:18.687Z,84.04
2023-02-14T18:49:46.459Z,84.47
2023-02-14T18:52:14.211Z,84.56
2023-02-14T18:54:42.198Z,85.73
2023-02-14T18:57:09.957Z,85.24
2023-02-14T18:59:37.709Z,85.38
2023-02-14T19:02:05.767Z,84.31
2023-02-14T19:04:34.928Z,85.69
2023-02-14T19:07:04.404Z,84.05
2023-02-14T19:09:38.885Z,84.93
2023-02-14T19:12:07.570Z,84.55
2023-02-14T19:14:35.547Z,84.19
2023-02-14T19:17:04.405Z,85.69
2023-02-14T19:19:32.224Z,84.86
2023-02-14T19:22:01.871Z,85.23
2023-02-14T19:24:29.759Z,84.42
2023-02-14T19:26:57.854Z,84.81
2023-02-14T19:29:26.063Z,86.20
2023-02-14T19:31:55.809Z,85.66
2023-02-14T19:34:28.274Z,86.34
2023-02-14T19:36:59.102Z,85.24
2023-02-14T19:39:30.530Z,85.98
2023-02-14T19:41:58.987Z,87.39
2023-02-14T19:44:28.815Z,85.79
2023-02-14T19:46:59.812Z,85.40
2023-02-14T19:49:28.907Z,86.06
2023-02-14T19:51:57.924Z,86.15
2023-02-14T19:54:30.161Z,85.75
2023-02-14T19:57:00.803Z,86.11
2023-02-14T19:59:28.628Z,86.25
2023-02-14T20:01:58.263Z,85.84
2023-02-14T20:04:28.643Z,87.46
2023-02-14T20:06:56.844Z,87.18
2023-02-14T20:09:25.555Z,87.34
2023-02-14T20:11:56.352Z,87.49
2023-02-14T20:14:25.920Z,87.38
2023-02-14T20:16:55.334Z,87.92
2023-02-14T20:19:26.941Z,88.23
2023-02-14T20:21:55.370Z,87.65
2023-02-14T20:24:24.718Z,87.98
2023-02-14T20:26:54.570Z,89.05
2023-02-14T20:29:24.040Z,89.41
2023-02-14T20:31:53.689Z,89.36
2023-02-14T20:34:21.918Z,89.43
2023-02-14T20:36:53.148Z,88.03
2023-02-14T20:39:22.691Z,88.52
2023-02-14T20:41:50.928Z,88.43
2023-02-14T20:44:23.129Z,88.19
2023-02-14T20:46:53.448Z,88.07
2023-02-14T20:49:22.506Z,88.36
2023-02-14T20:51:51.603Z,88.20
2023-02-14T20:54:21.012Z,89.04
2023-02-14T20:56:50.581Z,88.95
2023-02-14T20:59:24.296Z,88.58
2023-02-14T21:01:52.137Z,89.42
2023-02-14T21:04:19.852Z,89.53
2023-02-14T21:06:48.979Z,89.23
2023-02-14T21:09:18.569Z,88.86
2023-02-14T21:11:49.132Z,89.56
2023-02-14T21:14:23.652Z,90.09
2023-02-14T21:16:51.437Z,89.66
2023-02-14T21:19:19.779Z,90.00
2023-02-14T21:21:47.625Z,90.73
2023-02-14T21:24:16.866Z,91.11
2023-02-14T21:26:44.961Z,91.56
2023-02-14T21:29:12.728Z,91.13
2023-02-14T21:31:42.354Z,92.09
2023-02-14T21:34:10.258Z,92.91
2023-02-14T21:36:38.150Z,92.63
2023-02-14T21:39:07.346Z,91.94
2023-02-14T21:41:36.892Z,91.59
2023-02-14T21:44:07.687Z,91.40
2023-02-14T21:46:57.944Z,91.32
2023-02-14T21:49:43.174Z,91.46
2023-02-14T21:52:13.746Z,92.51
2023-02-14T21:54:41.479Z,91.87
2023-02-14T21:57:17.078Z,90.73
2023-02-14T21:59:52.313Z,91.64
2023-02-14T22:02:24.104Z,91.89
2023-02-14T22:04:51.907Z,91.26
2023-02-14T22:07:19.821Z,92.03
2023-02-14T22:09:47.596Z,92.55
2023-02-14T22:12:15.362Z,92.06
2023-02-14T22:14:43.088Z,93.21
2023-02-14T22:17:10.889Z,91.94
2023-02-14T22:19:39.969Z,92.83
2023-02-14T22:22:08.069Z,91.94
2023-02-14T22:24:35.861Z,92.12
2023-02-14T22:27:03.572Z,92.44
2023-02-14T22:29:31.297Z,92.06
2023-02-14T22:31:59.177Z,92.44
2023-02-14T22:34:27.054Z,92.09
2023-02-14T22:36:56.109Z,93.10
2023-02-14T22:39:24.075Z,92.38
2023-02-14T22:41:51.771Z,92.58
2023-02-14T22:44:19.779Z,92.18
2023-02-14T22:46:47.681Z,92.64
2023-02-14T22:49:15.510Z,92.68
2023-02-14T22:51:43.582Z,92.42
2023-02-14T22:54:14.897Z,92.32
2023-02-14T22:56:44.718Z,91.66
2023-02-14T22:59:17.058Z,92.20
2023-02-14T23:01:45.231Z,92.30
2023-02-14T23:04:13.987Z,91.95
2023-02-14T23:06:44.003Z,92.16
2023-02-14T23:09:17.356Z,91.77
2023-02-14T23:11:48.069Z,92.52
2023-02-14T23:14:35.169Z,93.13
2023-02-14T23:17:20.883Z,92.63
2023-02-14T23:20:06.695Z,92.39
2023-02-14T23:22:36.227Z,92.30
2023-02-14T23:25:08.112Z,92.21
2023-02-14T23:27:37.928Z,93.40
2023-02-14T23:30:07.921Z,93.15
2023-02-14T23:32:40.239Z,92.35
2023-02-14T23:35:08.585Z,92.13
2023-02-14T23:37:36.358Z,93.00
2023-02-14T23:40:06.735Z,93.14
2023-02-14T23:42:34.733Z,93.04
2023-02-14T23:45:16.463Z,92.97
2023-02-14T23:47:44.206Z,92.65
2023-02-14T23:50:12.148Z,91.92
2023-02-14T23:52:41.664Z,92.63
2023-02-14T23:55:11.179Z,93.76
2023-02-14T23:57:39.371Z,93.25
